createdAt,value
2022-08-03T00:00:43.418Z,99.90
2022-08-03T00:03:12.424Z,99.90
2022-08-03T00:06:03.929Z,99.90
2022-08-03T00:08:32.528Z,99.90
2022-08-03T00:11:09.350Z,99.90
2022-08-03T00:13:38.479Z,99.90
2022-08-03T00:16:07.751Z,99.90
2022-08-03T00:18:36.915Z,99.90
2022-08-03T00:21:07.416Z,99.90
2022-08-03T00:23:52.300Z,99.90
2022-08-03T00:26:22.007Z,99.90
2022-08-03T00:28:51.064Z,99.90
2022-08-03T00:31:24.886Z,99.90
2022-08-03T00:34:08.450Z,99.90
2022-08-03T00:36:37.032Z,99.90
2022-08-03T00:39:07.896Z,99.90
2022-08-03T00:41:36.806Z,99.90
2022-08-03T00:44:06.135Z,99.90
2022-08-03T00:46:34.954Z,99.90
2022-08-03T00:49:04.559Z,99.90
2022-08-03T00:51:35.603Z,99.90
2022-08-03T00:54:04.469Z,99.90
2022-08-03T00:56:35.469Z,99.90
2022-08-03T00:59:05.958Z,99.90
2022-08-03T01:01:34.809Z,99.90
2022-08-03T01:04:03.485Z,99.90
2022-08-03T01:06:42.808Z,99.90
2022-08-03T01:09:18.022Z,99.90
2022-08-03T01:11:59.938Z,99.90
2022-08-03T01:14:35.932Z,99.90
2022-08-03T01:17:11.914Z,99.90
2022-08-03T01:19:50.989Z,99.90
2022-08-03T01:22:41.631Z,99.90
2022-08-03T01:25:23.183Z,99.90
2022-08-03T01:28:03.922Z,99.90
2022-08-03T01:30:36.601Z,99.90
2022-08-03T01:33:08.061Z,99.90
2022-08-03T01:35:42.823Z,99.90
2022-08-03T01:38:15.238Z,99.90
2022-08-03T01:40:45.949Z,99.90
2022-08-03T01:44:28.304Z,99.90
2022-08-03T01:46:11.998Z,99.90
2022-08-03T01:48:44.088Z,99.90
2022-08-03T01:51:13.718Z,99.90
2022-08-03T01:53:44.432Z,99.90
2022-08-03T01:56:14.987Z,99.90
2022-08-03T01:58:45.563Z,99.90
2022-08-03T02:01:19.315Z,99.90
2022-08-03T02:04:00.020Z,99.90
2022-08-03T02:07:00.697Z,99.90
2022-08-03T02:09:24.933Z,99.90
2022-08-03T02:11:54.543Z,99.90
2022-08-03T02:14:26.215Z,99.90
2022-08-03T02:16:58.230Z,99.90
2022-08-03T02:19:32.439Z,99.90
2022-08-03T02:22:07.129Z,99.90
2022-08-03T02:24:37.816Z,99.90
2022-08-03T02:27:12.200Z,99.90
2022-08-03T02:29:42.910Z,99.90
2022-08-03T02:32:18.236Z,99.90
2022-08-03T02:34:50.076Z,99.90
2022-08-03T02:37:20.834Z,99.90
2022-08-03T02:39:53.475Z,99.90
2022-08-03T02:42:24.441Z,99.90
2022-08-03T02:44:56.907Z,99.90
2022-08-03T02:47:54.132Z,99.90
2022-08-03T02:50:20.532Z,99.90
2022-08-03T02:52:51.231Z,99.90
2022-08-03T02:55:22.777Z,99.90
2022-08-03T02:57:53.225Z,99.90
2022-08-03T03:00:27.434Z,99.90
2022-08-03T03:03:00.422Z,99.90
2022-08-03T03:05:54.984Z,99.90
2022-08-03T03:08:26.836Z,99.90
2022-08-03T03:11:01.252Z,99.90
2022-08-03T03:13:32.352Z,99.90
2022-08-03T03:16:04.269Z,99.90
2022-08-03T03:18:36.284Z,99.90
2022-08-03T03:21:06.337Z,99.90
2022-08-03T03:23:36.812Z,99.90
2022-08-03T03:26:06.984Z,99.90
2022-08-03T03:28:37.092Z,99.90
2022-08-03T03:31:06.865Z,99.90
2022-08-03T03:33:37.831Z,99.90
2022-08-03T03:36:07.809Z,99.90
2022-08-03T03:38:36.888Z,99.90
2022-08-03T03:41:07.174Z,99.90
2022-08-03T03:43:36.223Z,99.90
2022-08-03T03:46:05.202Z,99.90
2022-08-03T03:48:34.726Z,99.90
2022-08-03T03:51:05.239Z,99.90
2022-08-03T03:53:34.145Z,99.90
2022-08-03T03:56:03.296Z,99.90
2022-08-03T03:58:34.221Z,99.90
2022-08-03T04:01:03.452Z,99.90
2022-08-03T04:03:32.251Z,99.90
2022-08-03T04:06:18.397Z,99.90
2022-08-03T04:09:06.069Z,99.90
2022-08-03T04:11:41.233Z,99.90
2022-08-03T04:14:14.275Z,99.90
2022-08-03T04:16:46.566Z,99.90
2022-08-03T04:19:23.295Z,99.90
2022-08-03T04:21:56.985Z,99.90
2022-08-03T04:24:32.511Z,99.90
2022-08-03T04:27:04.813Z,99.90
2022-08-03T04:29:38.679Z,99.90
2022-08-03T04:32:18.543Z,99.90
2022-08-03T04:34:48.327Z,99.90
2022-08-03T04:37:26.116Z,99.90
2022-08-03T04:39:58.725Z,99.90
2022-08-03T04:42:29.144Z,99.90
2022-08-03T04:45:01.720Z,99.90
2022-08-03T04:47:34.093Z,99.90
2022-08-03T04:50:03.939Z,99.90
2022-08-03T04:52:32.625Z,99.90
2022-08-03T04:55:03.390Z,99.90
2022-08-03T04:57:32.459Z,99.90
2022-08-03T05:00:03.409Z,99.90
2022-08-03T05:02:33.736Z,99.90
2022-08-03T05:05:03.186Z,99.90
2022-08-03T05:07:35.613Z,99.90
2022-08-03T05:10:15.947Z,99.90
2022-08-03T05:12:46.840Z,99.90
2022-08-03T05:15:16.460Z,99.90
2022-08-03T05:17:46.873Z,99.90
2022-08-03T05:20:16.656Z,99.90
2022-08-03T05:22:48.046Z,99.90
2022-08-03T05:25:19.785Z,99.90
2022-08-03T05:27:51.076Z,99.90
2022-08-03T05:30:26.823Z,99.90
2022-08-03T05:33:03.269Z,99.90
2022-08-03T05:36:01.257Z,99.90
2022-08-03T05:38:28.120Z,99.90
2022-08-03T05:41:22.858Z,99.90
2022-08-03T05:43:54.141Z,99.90
2022-08-03T05:46:24.181Z,99.90
2022-08-03T05:48:53.144Z,99.40
2022-08-03T05:51:22.544Z,99.00
2022-08-03T05:53:52.546Z,98.70
2022-08-03T05:56:26.522Z,98.30
2022-08-03T05:58:55.462Z,97.80
2022-08-03T06:01:24.371Z,97.50
2022-08-03T06:03:54.814Z,97.00
2022-08-03T06:06:25.363Z,96.60
2022-08-03T06:08:56.562Z,96.20
2022-08-03T06:11:27.627Z,95.70
2022-08-03T06:13:56.489Z,95.10
2022-08-03T06:16:25.848Z,94.90
2022-08-03T06:18:54.667Z,94.40
2022-08-03T06:21:23.773Z,94.30
2022-08-03T06:23:56.264Z,93.80
2022-08-03T06:26:29.323Z,93.40
2022-08-03T06:29:00.073Z,92.70
2022-08-03T06:31:33.839Z,92.50
2022-08-03T06:34:34.056Z,92.30
2022-08-03T06:37:01.294Z,92.20
2022-08-03T06:39:31.626Z,91.90
2022-08-03T06:42:02.821Z,91.70
2022-08-03T06:44:32.412Z,91.40
2022-08-03T06:47:02.049Z,91.10
2022-08-03T06:49:33.295Z,90.80
2022-08-03T06:52:06.877Z,90.50
2022-08-03T06:54:39.965Z,90.40
2022-08-03T06:57:12.446Z,89.90
2022-08-03T07:00:10.994Z,90.20
2022-08-03T07:02:31.229Z,90.00
2022-08-03T07:05:00.307Z,89.80
2022-08-03T07:07:32.046Z,89.50
2022-08-03T07:10:02.391Z,88.80
2022-08-03T07:12:37.725Z,88.60
2022-08-03T07:15:53.778Z,88.20
2022-08-03T07:18:14.139Z,88.30
2022-08-03T07:20:43.608Z,88.40
2022-08-03T07:23:19.186Z,88.20
2022-08-03T07:25:49.057Z,87.70
2022-08-03T07:28:30.806Z,87.50
2022-08-03T07:30:59.965Z,87.30
2022-08-03T07:33:30.441Z,86.70
2022-08-03T07:35:59.806Z,86.20
2022-08-03T07:38:30.295Z,86.10
2022-08-03T07:41:00.128Z,86.00
2022-08-03T07:43:34.315Z,85.60
2022-08-03T07:46:04.115Z,85.10
2022-08-03T07:48:37.646Z,85.30
2022-08-03T07:51:08.027Z,85.40
2022-08-03T07:53:38.197Z,84.90
2022-08-03T07:56:17.687Z,84.50
2022-08-03T07:58:50.641Z,84.00
2022-08-03T08:01:26.159Z,83.90
2022-08-03T08:03:55.948Z,83.50
2022-08-03T08:06:25.045Z,83.10
2022-08-03T08:09:01.099Z,82.80
2022-08-03T08:11:30.314Z,82.90
2022-08-03T08:14:03.226Z,82.80
2022-08-03T08:24:22.991Z,82.40
2022-08-03T08:28:30.573Z,81.30
2022-08-03T08:38:17.233Z,80.90
2022-08-03T08:42:13.981Z,80.90
2022-08-03T08:52:51.422Z,79.70
2022-08-03T09:11:53.370Z,78.80
2022-08-03T09:22:10.496Z,78.20
2022-08-03T09:25:39.360Z,77.70
2022-08-03T09:42:59.349Z,71.70
2022-08-03T09:45:28.622Z,69.30
2022-08-03T09:48:00.210Z,68.50
2022-08-03T09:50:29.269Z,68.60
2022-08-03T09:53:04.304Z,67.70
2022-08-03T09:56:34.727Z,66.60
2022-08-03T09:58:26.396Z,66.10
2022-08-03T10:01:00.278Z,66.00
2022-08-03T10:03:34.184Z,64.80
2022-08-03T10:06:19.631Z,65.40
2022-08-03T10:08:48.577Z,65.60
2022-08-03T10:11:40.901Z,65.30
2022-08-03T10:14:19.603Z,65.50
2022-08-03T10:16:50.421Z,65.20
2022-08-03T10:19:22.254Z,65.10
2022-08-03T10:22:07.666Z,63.80
2022-08-03T10:24:41.812Z,64.10
2022-08-03T10:27:15.627Z,64.00
2022-08-03T10:29:49.633Z,63.30
2022-08-03T10:32:23.863Z,62.30
2022-08-03T10:35:00.368Z,61.70
2022-08-03T10:37:38.255Z,61.20
2022-08-03T10:40:16.184Z,60.90
2022-08-03T10:43:04.158Z,62.10
2022-08-03T10:45:39.883Z,62.20
2022-08-03T10:48:11.417Z,62.10
2022-08-03T10:50:44.676Z,61.90
2022-08-03T10:53:14.732Z,61.70
2022-08-03T10:56:05.568Z,60.60
2022-08-03T10:58:53.350Z,59.20
2022-08-03T11:01:59.931Z,58.80
2022-08-03T11:04:31.354Z,59.40
2022-08-03T11:07:23.525Z,59.40
2022-08-03T11:09:54.081Z,58.20
2022-08-03T11:12:31.163Z,58.40
2022-08-03T11:15:06.799Z,58.30
2022-08-03T11:17:46.704Z,58.40
2022-08-03T11:20:46.928Z,57.60
2022-08-03T11:26:21.086Z,58.50
2022-08-03T11:28:54.037Z,59.20
2022-08-03T11:31:51.674Z,58.80
2022-08-03T11:34:30.109Z,58.90
2022-08-03T11:37:33.246Z,57.40
2022-08-03T11:40:06.750Z,57.20
2022-08-03T11:42:56.424Z,55.20
2022-08-03T11:45:25.294Z,54.20
2022-08-03T11:48:00.116Z,54.40
2022-08-03T11:50:40.383Z,55.20
2022-08-03T11:53:09.516Z,56.30
2022-08-03T11:55:45.059Z,56.20
2022-08-03T11:59:01.067Z,55.40
2022-08-03T12:01:11.542Z,54.20
2022-08-03T12:03:41.107Z,53.40
2022-08-03T12:06:17.048Z,52.60
2022-08-03T12:08:46.881Z,52.70
2022-08-03T12:11:19.238Z,52.90
2022-08-03T12:14:45.855Z,53.70
2022-08-03T12:16:52.302Z,53.30
2022-08-03T12:19:24.619Z,52.80
2022-08-03T12:22:11.660Z,53.30
2022-08-03T12:24:44.188Z,53.00
2022-08-03T12:27:27.267Z,52.00
2022-08-03T12:30:02.405Z,51.90
2022-08-03T12:32:32.569Z,52.70
2022-08-03T12:35:09.242Z,53.20
2022-08-03T12:37:59.889Z,54.50
2022-08-03T12:40:34.509Z,54.50
2022-08-03T12:43:16.427Z,53.20
2022-08-03T12:45:51.646Z,52.50
2022-08-03T12:48:50.467Z,51.30
2022-08-03T12:51:21.460Z,51.10
2022-08-03T12:54:02.910Z,51.00
2022-08-03T13:02:30.404Z,50.80
2022-08-03T13:05:12.040Z,51.00
2022-08-03T13:08:09.866Z,49.60
2022-08-03T13:10:59.637Z,49.20
2022-08-03T13:13:46.890Z,49.70
2022-08-03T13:16:26.497Z,50.20
2022-08-03T13:18:56.446Z,49.90
2022-08-03T13:21:26.266Z,49.40
2022-08-03T13:23:56.546Z,49.20
2022-08-03T13:26:27.033Z,48.50
2022-08-03T13:29:10.185Z,48.30
2022-08-03T13:31:50.478Z,47.90
2022-08-03T13:34:23.918Z,47.60
2022-08-03T13:37:08.951Z,46.00
2022-08-03T13:39:58.202Z,45.40
2022-08-03T13:42:41.354Z,46.40
2022-08-03T13:45:14.414Z,45.30
2022-08-03T13:47:44.538Z,45.20
2022-08-03T13:50:21.529Z,44.70
2022-08-03T13:52:59.190Z,45.10
2022-08-03T13:55:31.986Z,45.40
2022-08-03T13:58:19.177Z,45.90
2022-08-03T14:00:48.050Z,45.70
2022-08-03T14:03:16.941Z,45.90
2022-08-03T14:05:46.129Z,46.30
2022-08-03T14:08:15.042Z,46.80
2022-08-03T14:10:45.386Z,46.80
2022-08-03T14:13:30.909Z,46.10
2022-08-03T14:15:59.529Z,46.80
2022-08-03T14:18:33.380Z,46.60
2022-08-03T14:21:06.720Z,46.60
2022-08-03T14:23:37.797Z,45.80
2022-08-03T14:26:09.819Z,45.10
2022-08-03T14:28:39.986Z,44.60
2022-08-03T14:32:11.315Z,43.50
2022-08-03T14:33:57.609Z,43.60
2022-08-03T14:36:26.070Z,42.70
2022-08-03T14:38:58.181Z,41.10
2022-08-03T14:41:35.977Z,40.90
2022-08-03T14:44:10.745Z,40.90
2022-08-03T14:46:39.971Z,41.90
2022-08-03T14:50:35.759Z,43.30
2022-08-03T14:52:08.122Z,42.90
2022-08-03T14:54:49.098Z,42.20
2022-08-03T14:57:21.517Z,41.30
2022-08-03T14:59:55.748Z,40.80
2022-08-03T15:02:26.250Z,41.00
2022-08-03T15:04:57.465Z,41.30
2022-08-03T15:07:26.853Z,41.40
2022-08-03T15:09:59.968Z,42.10
2022-08-03T15:12:35.952Z,42.00
2022-08-03T15:15:10.443Z,43.40
2022-08-03T15:17:42.991Z,45.00
2022-08-03T15:20:43.276Z,44.60
2022-08-03T15:23:13.096Z,44.50
2022-08-03T15:26:03.999Z,46.00
2022-08-03T15:28:38.035Z,46.30
2022-08-03T15:31:08.336Z,45.30
2022-08-03T15:33:37.138Z,45.40
2022-08-03T15:36:07.160Z,45.00
2022-08-03T15:38:41.119Z,44.50
2022-08-03T15:41:13.713Z,44.50
2022-08-03T15:43:47.944Z,45.30
2022-08-03T15:46:29.648Z,44.60
2022-08-03T15:49:01.418Z,43.60
2022-08-03T15:51:30.386Z,44.10
2022-08-03T15:53:58.943Z,44.30
2022-08-03T15:56:27.714Z,44.10
2022-08-03T15:59:12.082Z,44.90
2022-08-03T16:01:44.074Z,44.10
2022-08-03T16:04:13.104Z,44.40
2022-08-03T16:06:41.869Z,44.50
2022-08-03T16:09:22.983Z,45.10
2022-08-03T16:12:01.861Z,45.70
2022-08-03T16:14:36.649Z,46.80
2022-08-03T16:17:14.939Z,47.40
2022-08-03T16:19:43.687Z,47.40
2022-08-03T16:22:15.698Z,46.90
2022-08-03T16:24:48.101Z,45.80
2022-08-03T16:27:34.732Z,44.90
2022-08-03T16:30:07.337Z,43.60
2022-08-03T16:32:38.750Z,44.50
2022-08-03T16:35:19.797Z,43.80
2022-08-03T16:37:54.579Z,44.10
2022-08-03T16:40:26.542Z,44.10
2022-08-03T16:43:01.335Z,43.90
2022-08-03T16:45:30.102Z,43.60
2022-08-03T16:48:05.985Z,44.20
2022-08-03T16:50:35.548Z,44.50
2022-08-03T16:53:09.126Z,44.20
2022-08-03T16:55:51.634Z,43.80
2022-08-03T16:58:24.609Z,43.30
2022-08-03T17:01:22.054Z,43.30
2022-08-03T17:04:01.296Z,43.30
2022-08-03T17:06:34.048Z,43.40
2022-08-03T17:09:09.897Z,42.90
2022-08-03T17:11:46.447Z,42.80
2022-08-03T17:14:43.262Z,44.50
2022-08-03T17:17:18.755Z,45.40
2022-08-03T17:19:55.179Z,46.10
2022-08-03T17:22:29.219Z,46.10
2022-08-03T17:25:07.551Z,45.80
2022-08-03T17:28:48.124Z,46.30
2022-08-03T17:30:50.557Z,45.90
2022-08-03T17:33:20.580Z,47.00
2022-08-03T17:35:59.353Z,48.00
2022-08-03T17:38:31.913Z,48.70
2022-08-03T17:41:10.662Z,48.40
2022-08-03T17:44:14.207Z,47.80
2022-08-03T17:46:30.724Z,48.30
2022-08-03T17:49:23.760Z,48.80
2022-08-03T17:52:00.311Z,50.50
2022-08-03T17:55:56.101Z,52.80
2022-08-03T17:58:02.230Z,54.50
2022-08-03T18:00:46.985Z,55.70
2022-08-03T18:11:37.251Z,58.00
2022-08-03T18:14:35.930Z,58.50
2022-08-03T18:17:55.285Z,59.50
2022-08-03T18:20:45.667Z,59.60
2022-08-03T18:24:15.829Z,59.40
2022-08-03T18:27:25.179Z,61.10
2022-08-03T18:30:54.587Z,61.10
2022-08-03T18:34:17.323Z,61.30
2022-08-03T18:37:51.893Z,62.60
2022-08-03T18:40:55.298Z,63.00
2022-08-03T19:01:58.451Z,67.40
2022-08-03T19:04:29.755Z,68.30
2022-08-03T19:07:22.158Z,68.90
2022-08-03T19:10:15.672Z,69.80
2022-08-03T19:12:56.015Z,70.00
2022-08-03T19:15:50.910Z,70.90
2022-08-03T19:18:26.978Z,71.90
2022-08-03T19:21:12.800Z,73.10
2022-08-03T19:23:49.745Z,73.80
2022-08-03T19:26:30.635Z,73.10
2022-08-03T19:29:11.383Z,73.80
2022-08-03T19:31:59.413Z,74.60
2022-08-03T19:49:20.114Z,77.50
2022-08-03T20:18:01.455Z,81.20
2022-08-03T20:20:59.769Z,82.40
2022-08-03T20:24:40.420Z,83.20
2022-08-03T20:28:08.108Z,83.40
2022-08-03T20:30:51.550Z,83.50
2022-08-03T20:36:39.387Z,85.40
2022-08-03T20:42:30.143Z,85.40
2022-08-03T20:45:06.149Z,85.90
2022-08-03T20:47:50.823Z,86.20
2022-08-03T20:50:22.538Z,86.50
2022-08-03T20:52:51.528Z,87.10
2022-08-03T20:55:47.483Z,86.70
2022-08-03T20:58:09.689Z,86.40
2022-08-03T21:00:38.338Z,86.70
2022-08-03T21:03:09.022Z,86.80
2022-08-03T21:05:51.290Z,87.70
2022-08-03T21:08:23.990Z,88.10
2022-08-03T21:10:55.373Z,88.70
2022-08-03T21:13:08.185Z,57.20
2022-08-03T21:13:34.252Z,89.30
2022-08-03T21:16:14.242Z,89.40
2022-08-03T21:18:47.511Z,89.50
2022-08-03T21:21:19.590Z,90.30
2022-08-03T21:23:51.457Z,90.30
2022-08-03T21:26:21.572Z,90.60
2022-08-03T21:28:51.793Z,90.70
2022-08-03T21:31:24.837Z,90.90
2022-08-03T21:33:57.242Z,90.90
2022-08-03T21:36:28.981Z,90.90
2022-08-03T21:38:58.850Z,91.50
2022-08-03T21:41:28.823Z,91.50
2022-08-03T21:43:58.175Z,91.50
2022-08-03T21:46:28.348Z,91.60
2022-08-03T21:50:05.805Z,91.20
2022-08-03T21:51:53.621Z,91.00
2022-08-03T21:54:23.843Z,91.30
2022-08-03T21:56:54.955Z,91.40
2022-08-03T21:59:26.909Z,91.50
2022-08-03T22:01:58.758Z,91.80
2022-08-03T22:04:38.067Z,92.00
2022-08-03T22:07:19.780Z,91.60
2022-08-03T22:09:50.134Z,91.60
2022-08-03T22:12:22.336Z,91.40
2022-08-03T22:15:00.244Z,91.50
2022-08-03T22:17:55.916Z,91.40
2022-08-03T22:20:21.990Z,90.70
2022-08-03T22:22:56.548Z,91.10
2022-08-03T22:25:30.697Z,91.40
2022-08-03T22:28:01.597Z,91.70
2022-08-03T22:30:31.795Z,91.20
2022-08-03T22:33:02.850Z,91.00
2022-08-03T22:35:47.147Z,91.00
2022-08-03T22:38:18.990Z,91.00
2022-08-03T22:40:51.221Z,90.90
2022-08-03T22:43:24.338Z,90.50
2022-08-03T22:46:09.496Z,91.00
2022-08-03T22:48:41.889Z,90.90
2022-08-03T22:51:11.435Z,91.60
2022-08-03T22:53:41.988Z,91.60
2022-08-03T22:56:11.061Z,91.80
2022-08-03T22:58:39.788Z,92.10
2022-08-03T23:01:09.755Z,92.20
2022-08-03T23:29:01.317Z,91.30
